sensor_id;sensor_type;location;lat;lon;timestamp;P1;durP1;ratioP1;P2;durP2;ratioP2
73959;SDS011;62316;48.920;2.342;2023-03-11T05:02:07;6.50;;;6.50;;
73959;SDS011;62316;48.920;2.342;2023-03-11T05:04:40;2.25;;;2.25;;
73959;SDS011;62316;48.920;2.342;2023-03-11T05:07:12;5.25;;;2.75;;
73959;SDS011;62316;48.920;2.342;2023-03-11T05:09:37;5.00;;;5.00;;
73959;SDS011;62316;48.920;2.342;2023-03-11T05:12:03;5.00;;;5.00;;
73959;SDS011;62316;48.920;2.342;2023-03-11T05:14:28;4.00;;;4.00;;
73959;SDS011;62316;48.920;2.342;2023-03-11T05:16:54;3.00;;;3.00;;
73959;SDS011;62316;48.920;2.342;2023-03-11T05:19:19;4.50;;;4.50;;
73959;SDS011;62316;48.920;2.342;2023-03-11T05:21:59;3.25;;;2.75;;
73959;SDS011;62316;48.920;2.342;2023-03-11T05:24:25;3.50;;;3.50;;
73959;SDS011;62316;48.920;2.342;2023-03-11T05:26:51;5.50;;;5.25;;
73959;SDS011;62316;48.920;2.342;2023-03-11T05:29:17;6.25;;;6.00;;
73959;SDS011;62316;48.920;2.342;2023-03-11T05:31:42;7.25;;;6.00;;
73959;SDS011;62316;48.920;2.342;2023-03-11T05:34:08;6.00;;;6.00;;
73959;SDS011;62316;48.920;2.342;2023-03-11T05:36:33;7.00;;;6.00;;
73959;SDS011;62316;48.920;2.342;2023-03-11T05:38:59;5.00;;;5.00;;
73959;SDS011;62316;48.920;2.342;2023-03-11T05:41:24;5.25;;;4.50;;
73959;SDS011;62316;48.920;2.342;2023-03-11T05:43:49;2.00;;;2.00;;
73959;SDS011;62316;48.920;2.342;2023-03-11T05:46:15;5.50;;;5.00;;
73959;SDS011;62316;48.920;2.342;2023-03-11T05:48:40;7.50;;;4.75;;
73959;SDS011;62316;48.920;2.342;2023-03-11T05:51:06;7.00;;;6.00;;
73959;SDS011;62316;48.920;2.342;2023-03-11T05:53:33;5.50;;;3.75;;
73959;SDS011;62316;48.920;2.342;2023-03-11T05:55:58;5.00;;;5.00;;
73959;SDS011;62316;48.920;2.342;2023-03-11T05:58:24;4.75;;;4.75;;
73959;SDS011;62316;48.920;2.342;2023-03-11T06:00:51;7.00;;;6.00;;
73959;SDS011;62316;48.920;2.342;2023-03-11T06:03:16;11.25;;;6.50;;
73959;SDS011;62316;48.920;2.342;2023-03-11T06:05:45;9.50;;;6.50;;
73959;SDS011;62316;48.920;2.342;2023-03-11T06:08:13;7.75;;;7.75;;
73959;SDS011;62316;48.920;2.342;2023-03-11T06:10:39;6.00;;;6.00;;
73959;SDS011;62316;48.920;2.342;2023-03-11T06:13:05;5.50;;;4.00;;
73959;SDS011;62316;48.920;2.342;2023-03-11T06:15:34;5.50;;;5.00;;
73959;SDS011;62316;48.920;2.342;2023-03-11T06:18:07;9.50;;;6.00;;
73959;SDS011;62316;48.920;2.342;2023-03-11T06:20:33;6.75;;;5.75;;
73959;SDS011;62316;48.920;2.342;2023-03-11T06:22:58;6.00;;;6.00;;
73959;SDS011;62316;48.920;2.342;2023-03-11T06:25:23;5.50;;;5.00;;
73959;SDS011;62316;48.920;2.342;2023-03-11T06:27:49;8.00;;;5.75;;
73959;SDS011;62316;48.920;2.342;2023-03-11T06:30:17;8.50;;;8.50;;
73959;SDS011;62316;48.920;2.342;2023-03-11T06:32:44;15.25;;;11.75;;
73959;SDS011;62316;48.920;2.342;2023-03-11T06:35:13;6.00;;;6.00;;
73959;SDS011;62316;48.920;2.342;2023-03-11T06:37:38;5.75;;;5.00;;
73959;SDS011;62316;48.920;2.342;2023-03-11T06:40:04;7.75;;;7.00;;
73959;SDS011;62316;48.920;2.342;2023-03-11T06:42:31;5.25;;;5.25;;
73959;SDS011;62316;48.920;2.342;2023-03-11T06:44:57;3.75;;;3.00;;
73959;SDS011;62316;48.920;2.342;2023-03-11T06:47:22;7.00;;;5.00;;
73959;SDS011;62316;48.920;2.342;2023-03-11T06:49:49;5.75;;;4.50;;
73959;SDS011;62316;48.920;2.342;2023-03-11T06:52:14;3.00;;;3.00;;
73959;SDS011;62316;48.920;2.342;2023-03-11T06:54:40;4.00;;;4.00;;
73959;SDS011;62316;48.920;2.342;2023-03-11T06:57:06;5.00;;;5.00;;
73959;SDS011;62316;48.920;2.342;2023-03-11T06:59:32;5.00;;;3.00;;
73959;SDS011;62316;48.920;2.342;2023-03-11T07:01:58;6.25;;;5.00;;
73959;SDS011;62316;48.920;2.342;2023-03-11T07:04:23;11.00;;;11.00;;
73959;SDS011;62316;48.920;2.342;2023-03-11T07:06:48;6.50;;;5.00;;
73959;SDS011;62316;48.920;2.342;2023-03-11T07:09:14;7.00;;;7.00;;
73959;SDS011;62316;48.920;2.342;2023-03-11T07:11:39;5.00;;;5.00;;
73959;SDS011;62316;48.920;2.342;2023-03-11T07:14:05;6.25;;;5.25;;
73959;SDS011;62316;48.920;2.342;2023-03-11T07:16:30;8.00;;;6.25;;
73959;SDS011;62316;48.920;2.342;2023-03-11T07:18:56;4.00;;;4.00;;
73959;SDS011;62316;48.920;2.342;2023-03-11T07:21:25;6.25;;;5.00;;
73959;SDS011;62316;48.920;2.342;2023-03-11T07:23:54;6.00;;;4.50;;
73959;SDS011;62316;48.920;2.342;2023-03-11T07:26:21;1.00;;;1.00;;
73959;SDS011;62316;48.920;2.342;2023-03-11T07:28:47;7.00;;;7.00;;
73959;SDS011;62316;48.920;2.342;2023-03-11T07:31:16;8.00;;;5.00;;
73959;SDS011;62316;48.920;2.342;2023-03-11T07:33:44;6.50;;;5.50;;
73959;SDS011;62316;48.920;2.342;2023-03-11T07:36:11;7.00;;;7.00;;
73959;SDS011;62316;48.920;2.342;2023-03-11T07:38:37;10.75;;;6.75;;
73959;SDS011;62316;48.920;2.342;2023-03-11T07:41:04;3.50;;;3.50;;
73959;SDS011;62316;48.920;2.342;2023-03-11T07:43:30;9.75;;;6.75;;
73959;SDS011;62316;48.920;2.342;2023-03-11T07:48:30;5.25;;;5.25;;
73959;SDS011;62316;48.920;2.342;2023-03-11T07:51:00;10.75;;;8.50;;
73959;SDS011;62316;48.920;2.342;2023-03-11T07:53:30;6.25;;;6.25;;
73959;SDS011;62316;48.920;2.342;2023-03-11T07:55:56;10.00;;;7.00;;
73959;SDS011;62316;48.920;2.342;2023-03-11T07:58:22;4.50;;;4.50;;
73959;SDS011;62316;48.920;2.342;2023-03-11T08:00:47;8.00;;;7.00;;
73959;SDS011;62316;48.920;2.342;2023-03-11T08:03:13;5.75;;;5.75;;
73959;SDS011;62316;48.920;2.342;2023-03-11T08:05:38;14.50;;;11.50;;
73959;SDS011;62316;48.920;2.342;2023-03-11T08:08:03;9.00;;;9.00;;
73959;SDS011;62316;48.920;2.342;2023-03-11T08:10:29;6.50;;;6.50;;
73959;SDS011;62316;48.920;2.342;2023-03-11T08:12:54;9.50;;;6.50;;
73959;SDS011;62316;48.920;2.342;2023-03-11T08:15:20;8.25;;;6.00;;
73959;SDS011;62316;48.920;2.342;2023-03-11T08:17:45;8.50;;;7.00;;
73959;SDS011;62316;48.920;2.342;2023-03-11T08:20:10;8.75;;;7.00;;
73959;SDS011;62316;48.920;2.342;2023-03-11T08:22:36;5.75;;;2.25;;
73959;SDS011;62316;48.920;2.342;2023-03-11T08:25:02;10.75;;;8.25;;
73959;SDS011;62316;48.920;2.342;2023-03-11T08:27:27;8.50;;;8.50;;
73959;SDS011;62316;48.920;2.342;2023-03-11T08:29:53;11.25;;;7.75;;
73959;SDS011;62316;48.920;2.342;2023-03-11T08:32:18;7.00;;;5.75;;
73959;SDS011;62316;48.920;2.342;2023-03-11T08:34:44;8.75;;;7.50;;
73959;SDS011;62316;48.920;2.342;2023-03-11T08:37:09;8.50;;;8.50;;
73959;SDS011;62316;48.920;2.342;2023-03-11T08:39:34;12.25;;;9.75;;
73959;SDS011;62316;48.920;2.342;2023-03-11T08:42:00;7.50;;;6.75;;
73959;SDS011;62316;48.920;2.342;2023-03-11T08:44:26;9.50;;;7.25;;
73959;SDS011;62316;48.920;2.342;2023-03-11T08:46:52;6.75;;;5.75;;
73959;SDS011;62316;48.920;2.342;2023-03-11T08:49:17;8.00;;;6.00;;
73959;SDS011;62316;48.920;2.342;2023-03-11T08:51:43;6.00;;;6.00;;
73959;SDS011;62316;48.920;2.342;2023-03-11T08:54:08;8.25;;;7.00;;
73959;SDS011;62316;48.920;2.342;2023-03-11T08:56:33;6.25;;;6.25;;
73959;SDS011;62316;48.920;2.342;2023-03-11T08:58:59;9.25;;;7.00;;
73959;SDS011;62316;48.920;2.342;2023-03-11T09:01:41;6.00;;;6.00;;
73959;SDS011;62316;48.920;2.342;2023-03-11T09:04:24;12.00;;;8.00;;
73959;SDS011;62316;48.920;2.342;2023-03-11T09:06:50;8.50;;;7.50;;
73959;SDS011;62316;48.920;2.342;2023-03-11T09:09:19;9.00;;;7.75;;
73959;SDS011;62316;48.920;2.342;2023-03-11T09:11:49;8.50;;;7.25;;
73959;SDS011;62316;48.920;2.342;2023-03-11T09:14:15;7.75;;;7.50;;
73959;SDS011;62316;48.920;2.342;2023-03-11T09:16:40;10.75;;;10.75;;
73959;SDS011;62316;48.920;2.342;2023-03-11T09:19:05;10.50;;;7.50;;
73959;SDS011;62316;48.920;2.342;2023-03-11T09:21:35;7.25;;;7.25;;
73959;SDS011;62316;48.920;2.342;2023-03-11T09:24:02;8.00;;;4.00;;
73959;SDS011;62316;48.920;2.342;2023-03-11T09:26:28;8.00;;;8.00;;
73959;SDS011;62316;48.920;2.342;2023-03-11T09:28:54;11.00;;;11.00;;
73959;SDS011;62316;48.920;2.342;2023-03-11T09:31:20;9.75;;;9.75;;
73959;SDS011;62316;48.920;2.342;2023-03-11T09:33:46;11.50;;;9.00;;
73959;SDS011;62316;48.920;2.342;2023-03-11T09:36:12;6.00;;;6.00;;
73959;SDS011;62316;48.920;2.342;2023-03-11T09:38:39;8.00;;;7.00;;
73959;SDS011;62316;48.920;2.342;2023-03-11T09:46:44;11.00;;;7.00;;
73959;SDS011;62316;48.920;2.342;2023-03-11T09:52:13;7.25;;;7.25;;
73959;SDS011;62316;48.920;2.342;2023-03-11T09:54:41;12.00;;;10.25;;
73959;SDS011;62316;48.920;2.342;2023-03-11T09:57:21;7.00;;;6.00;;
73959;SDS011;62316;48.920;2.342;2023-03-11T09:59:49;7.25;;;5.25;;
73959;SDS011;62316;48.920;2.342;2023-03-11T10:02:16;6.75;;;5.75;;
73959;SDS011;62316;48.920;2.342;2023-03-11T10:07:12;5.50;;;4.75;;
73959;SDS011;62316;48.920;2.342;2023-03-11T10:09:52;4.75;;;4.75;;
73959;SDS011;62316;48.920;2.342;2023-03-11T10:12:27;6.00;;;5.25;;
73959;SDS011;62316;48.920;2.342;2023-03-11T10:14:59;4.75;;;4.75;;
73959;SDS011;62316;48.920;2.342;2023-03-11T10:29:10;8.75;;;8.25;;
73959;SDS011;62316;48.920;2.342;2023-03-11T10:31:59;6.00;;;6.00;;
73959;SDS011;62316;48.920;2.342;2023-03-11T10:34:31;6.00;;;5.50;;
73959;SDS011;62316;48.920;2.342;2023-03-11T10:37:18;8.75;;;8.00;;
73959;SDS011;62316;48.920;2.342;2023-03-11T10:39:48;8.00;;;6.75;;
73959;SDS011;62316;48.920;2.342;2023-03-11T10:42:14;9.50;;;8.00;;
73959;SDS011;62316;48.920;2.342;2023-03-11T10:44:42;4.25;;;4.25;;
73959;SDS011;62316;48.920;2.342;2023-03-11T10:47:17;7.50;;;5.25;;
73959;SDS011;62316;48.920;2.342;2023-03-11T10:49:44;7.00;;;7.00;;
73959;SDS011;62316;48.920;2.342;2023-03-11T10:52:10;9.00;;;9.00;;
73959;SDS011;62316;48.920;2.342;2023-03-11T10:54:37;3.50;;;3.50;;
73959;SDS011;62316;48.920;2.342;2023-03-11T10:59:52;6.00;;;6.00;;
73959;SDS011;62316;48.920;2.342;2023-03-11T11:07:47;7.50;;;5.50;;
73959;SDS011;62316;48.920;2.342;2023-03-11T11:15:19;10.00;;;5.75;;
73959;SDS011;62316;48.920;2.342;2023-03-11T11:17:56;6.75;;;5.00;;
73959;SDS011;62316;48.920;2.342;2023-03-11T11:20:24;6.50;;;5.50;;
73959;SDS011;62316;48.920;2.342;2023-03-11T11:22:59;8.00;;;6.75;;
73959;SDS011;62316;48.920;2.342;2023-03-11T11:25:30;8.00;;;6.25;;
73959;SDS011;62316;48.920;2.342;2023-03-11T11:28:01;6.25;;;6.25;;
73959;SDS011;62316;48.920;2.342;2023-03-11T11:33:22;7.00;;;7.00;;
73959;SDS011;62316;48.920;2.342;2023-03-11T11:36:15;8.25;;;7.25;;
73959;SDS011;62316;48.920;2.342;2023-03-11T11:38:42;6.00;;;5.00;;
73959;SDS011;62316;48.920;2.342;2023-03-11T11:41:08;6.75;;;6.75;;
73959;SDS011;62316;48.920;2.342;2023-03-11T11:44:00;7.00;;;6.00;;
73959;SDS011;62316;48.920;2.342;2023-03-11T11:46:41;8.75;;;8.75;;
73959;SDS011;62316;48.920;2.342;2023-03-11T11:49:20;12.50;;;11.75;;
73959;SDS011;62316;48.920;2.342;2023-03-11T11:51:50;6.75;;;5.00;;
73959;SDS011;62316;48.920;2.342;2023-03-11T11:56:57;5.75;;;5.25;;
73959;SDS011;62316;48.920;2.342;2023-03-11T11:59:22;7.75;;;5.00;;
73959;SDS011;62316;48.920;2.342;2023-03-11T12:02:06;11.75;;;8.75;;
73959;SDS011;62316;48.920;2.342;2023-03-11T12:22:03;7.00;;;5.25;;
73959;SDS011;62316;48.920;2.342;2023-03-11T12:24:44;5.75;;;3.25;;
73959;SDS011;62316;48.920;2.342;2023-03-11T12:27:25;6.00;;;5.75;;
73959;SDS011;62316;48.920;2.342;2023-03-11T12:29:58;3.00;;;3.00;;
73959;SDS011;62316;48.920;2.342;2023-03-11T12:32:35;6.75;;;6.00;;
73959;SDS011;62316;48.920;2.342;2023-03-11T12:38:03;10.00;;;8.75;;
73959;SDS011;62316;48.920;2.342;2023-03-11T12:50:51;7.50;;;6.00;;
73959;SDS011;62316;48.920;2.342;2023-03-11T12:53:16;8.00;;;7.00;;
73959;SDS011;62316;48.920;2.342;2023-03-11T12:56:05;4.50;;;4.00;;
73959;SDS011;62316;48.920;2.342;2023-03-11T12:58:41;8.00;;;6.75;;
73959;SDS011;62316;48.920;2.342;2023-03-11T13:06:54;7.50;;;7.50;;
73959;SDS011;62316;48.920;2.342;2023-03-11T13:09:45;8.25;;;6.75;;
73959;SDS011;62316;48.920;2.342;2023-03-11T13:12:53;9.00;;;6.00;;
73959;SDS011;62316;48.920;2.342;2023-03-11T13:18:31;4.00;;;4.00;;
73959;SDS011;62316;48.920;2.342;2023-03-11T13:25:39;6.25;;;6.00;;
73959;SDS011;62316;48.920;2.342;2023-03-11T13:28:23;5.25;;;5.25;;
73959;SDS011;62316;48.920;2.342;2023-03-11T13:39:20;9.50;;;8.25;;
73959;SDS011;62316;48.920;2.342;2023-03-11T13:41:54;12.75;;;12.50;;
73959;SDS011;62316;48.920;2.342;2023-03-11T13:46:49;7.25;;;5.00;;
73959;SDS011;62316;48.920;2.342;2023-03-11T13:49:41;6.50;;;4.75;;
73959;SDS011;62316;48.920;2.342;2023-03-11T13:52:12;6.75;;;5.50;;
73959;SDS011;62316;48.920;2.342;2023-03-11T13:59:56;9.00;;;6.33;;
73959;SDS011;62316;48.920;2.342;2023-03-11T14:02:23;6.00;;;4.00;;
73959;SDS011;62316;48.920;2.342;2023-03-11T14:04:52;9.00;;;7.75;;
73959;SDS011;62316;48.920;2.342;2023-03-11T14:07:24;12.25;;;9.00;;
73959;SDS011;62316;48.920;2.342;2023-03-11T14:10:13;8.00;;;7.00;;
73959;SDS011;62316;48.920;2.342;2023-03-11T14:12:45;3.50;;;3.50;;
73959;SDS011;62316;48.920;2.342;2023-03-11T14:15:12;8.50;;;6.00;;
73959;SDS011;62316;48.920;2.342;2023-03-11T14:17:49;4.50;;;4.00;;
73959;SDS011;62316;48.920;2.342;2023-03-11T14:20:19;4.50;;;4.50;;
73959;SDS011;62316;48.920;2.342;2023-03-11T14:22:50;4.00;;;4.00;;
73959;SDS011;62316;48.920;2.342;2023-03-11T14:28:01;6.75;;;6.00;;
73959;SDS011;62316;48.920;2.342;2023-03-11T14:30:31;9.00;;;9.00;;
73959;SDS011;62316;48.920;2.342;2023-03-11T14:33:02;7.75;;;7.75;;
73959;SDS011;62316;48.920;2.342;2023-03-11T14:35:30;8.00;;;8.00;;
73959;SDS011;62316;48.920;2.342;2023-03-11T14:37:57;7.00;;;4.50;;
73959;SDS011;62316;48.920;2.342;2023-03-11T14:40:24;9.00;;;8.00;;
73959;SDS011;62316;48.920;2.342;2023-03-11T14:42:52;7.00;;;7.00;;
73959;SDS011;62316;48.920;2.342;2023-03-11T14:45:20;10.00;;;8.00;;
73959;SDS011;62316;48.920;2.342;2023-03-11T14:50:35;6.25;;;6.25;;
73959;SDS011;62316;48.920;2.342;2023-03-11T14:55:41;7.75;;;6.50;;
73959;SDS011;62316;48.920;2.342;2023-03-11T14:58:21;5.75;;;5.25;;
73959;SDS011;62316;48.920;2.342;2023-03-11T15:03:39;6.00;;;6.00;;
73959;SDS011;62316;48.920;2.342;2023-03-11T15:06:28;7.25;;;7.25;;
73959;SDS011;62316;48.920;2.342;2023-03-11T15:08:55;6.25;;;6.25;;
73959;SDS011;62316;48.920;2.342;2023-03-11T15:11:25;7.75;;;7.25;;
73959;SDS011;62316;48.920;2.342;2023-03-11T15:13:52;6.75;;;4.50;;
73959;SDS011;62316;48.920;2.342;2023-03-11T15:16:36;7.75;;;7.50;;
73959;SDS011;62316;48.920;2.342;2023-03-11T15:21:47;8.75;;;6.50;;
73959;SDS011;62316;48.920;2.342;2023-03-11T15:24:18;10.00;;;9.00;;
73959;SDS011;62316;48.920;2.342;2023-03-11T15:26:55;8.00;;;6.50;;
73959;SDS011;62316;48.920;2.342;2023-03-11T15:29:31;9.00;;;7.25;;
73959;SDS011;62316;48.920;2.342;2023-03-11T15:31:58;8.50;;;7.25;;
73959;SDS011;62316;48.920;2.342;2023-03-11T15:34:25;8.00;;;8.00;;
73959;SDS011;62316;48.920;2.342;2023-03-11T15:41:57;4.25;;;4.00;;
73959;SDS011;62316;48.920;2.342;2023-03-11T15:47:21;8.75;;;7.00;;
73959;SDS011;62316;48.920;2.342;2023-03-11T15:49:47;6.50;;;5.75;;
73959;SDS011;62316;48.920;2.342;2023-03-11T15:52:13;9.00;;;8.25;;
73959;SDS011;62316;48.920;2.342;2023-03-11T15:54:39;11.50;;;8.25;;
73959;SDS011;62316;48.920;2.342;2023-03-11T15:57:06;10.00;;;8.50;;
73959;SDS011;62316;48.920;2.342;2023-03-11T15:59:34;7.50;;;7.50;;
73959;SDS011;62316;48.920;2.342;2023-03-11T16:02:00;8.50;;;7.00;;
73959;SDS011;62316;48.920;2.342;2023-03-11T16:04:25;12.50;;;9.00;;
73959;SDS011;62316;48.920;2.342;2023-03-11T16:06:51;6.75;;;6.75;;
73959;SDS011;62316;48.920;2.342;2023-03-11T16:09:18;7.25;;;7.25;;
73959;SDS011;62316;48.920;2.342;2023-03-11T16:11:43;6.25;;;6.25;;
73959;SDS011;62316;48.920;2.342;2023-03-11T16:14:14;12.50;;;9.75;;
73959;SDS011;62316;48.920;2.342;2023-03-11T16:16:40;9.00;;;8.00;;
73959;SDS011;62316;48.920;2.342;2023-03-11T16:19:07;11.50;;;10.00;;
73959;SDS011;62316;48.920;2.342;2023-03-11T16:21:33;11.25;;;10.00;;
73959;SDS011;62316;48.920;2.342;2023-03-11T16:24:15;11.00;;;10.25;;
73959;SDS011;62316;48.920;2.342;2023-03-11T16:26:43;8.50;;;8.00;;
73959;SDS011;62316;48.920;2.342;2023-03-11T16:29:09;16.75;;;12.00;;
73959;SDS011;62316;48.920;2.342;2023-03-11T16:31:34;10.75;;;9.75;;
73959;SDS011;62316;48.920;2.342;2023-03-11T16:34:00;9.00;;;9.00;;
73959;SDS011;62316;48.920;2.342;2023-03-11T16:36:25;13.50;;;11.00;;
73959;SDS011;62316;48.920;2.342;2023-03-11T16:38:51;13.00;;;11.50;;
73959;SDS011;62316;48.920;2.342;2023-03-11T16:41:16;13.75;;;13.75;;
73959;SDS011;62316;48.920;2.342;2023-03-11T16:43:42;15.50;;;13.25;;
73959;SDS011;62316;48.920;2.342;2023-03-11T16:46:08;11.25;;;8.75;;
73959;SDS011;62316;48.920;2.342;2023-03-11T16:48:33;9.00;;;8.25;;
73959;SDS011;62316;48.920;2.342;2023-03-11T16:50:59;9.00;;;8.00;;
73959;SDS011;62316;48.920;2.342;2023-03-11T16:53:24;9.50;;;9.50;;
73959;SDS011;62316;48.920;2.342;2023-03-11T16:55:50;9.75;;;8.25;;
73959;SDS011;62316;48.920;2.342;2023-03-11T16:58:16;7.50;;;6.50;;
73959;SDS011;62316;48.920;2.342;2023-03-11T17:00:41;9.25;;;9.00;;
73959;SDS011;62316;48.920;2.342;2023-03-11T17:03:09;9.25;;;7.25;;
73959;SDS011;62316;48.920;2.342;2023-03-11T17:05:36;8.00;;;6.25;;
73959;SDS011;62316;48.920;2.342;2023-03-11T17:08:01;8.50;;;6.50;;
73959;SDS011;62316;48.920;2.342;2023-03-11T17:10:28;10.75;;;10.75;;
73959;SDS011;62316;48.920;2.342;2023-03-11T17:12:55;12.25;;;8.75;;
73959;SDS011;62316;48.920;2.342;2023-03-11T17:18:43;9.50;;;9.50;;
73959;SDS011;62316;48.920;2.342;2023-03-11T17:21:09;12.50;;;8.50;;
73959;SDS011;62316;48.920;2.342;2023-03-11T17:23:36;13.75;;;11.00;;
73959;SDS011;62316;48.920;2.342;2023-03-11T17:26:01;12.50;;;6.25;;
73959;SDS011;62316;48.920;2.342;2023-03-11T17:28:33;9.00;;;7.00;;
73959;SDS011;62316;48.920;2.342;2023-03-11T17:30:58;7.25;;;7.25;;
73959;SDS011;62316;48.920;2.342;2023-03-11T17:33:24;7.00;;;7.00;;
73959;SDS011;62316;48.920;2.342;2023-03-11T17:36:00;22.25;;;18.25;;
73959;SDS011;62316;48.920;2.342;2023-03-11T17:38:43;9.00;;;7.25;;
73959;SDS011;62316;48.920;2.342;2023-03-11T17:41:10;7.75;;;6.75;;
73959;SDS011;62316;48.920;2.342;2023-03-11T17:43:36;9.50;;;8.50;;
73959;SDS011;62316;48.920;2.342;2023-03-11T17:46:14;9.50;;;9.50;;
73959;SDS011;62316;48.920;2.342;2023-03-11T17:48:41;11.75;;;8.50;;
73959;SDS011;62316;48.920;2.342;2023-03-11T17:51:08;8.00;;;8.00;;
73959;SDS011;62316;48.920;2.342;2023-03-11T17:53:35;8.50;;;6.75;;
73959;SDS011;62316;48.920;2.342;2023-03-11T17:56:04;5.50;;;5.50;;
73959;SDS011;62316;48.920;2.342;2023-03-11T17:58:31;8.75;;;7.75;;
73959;SDS011;62316;48.920;2.342;2023-03-11T18:00:56;6.25;;;6.25;;
73959;SDS011;62316;48.920;2.342;2023-03-11T18:03:29;10.75;;;7.00;;
73959;SDS011;62316;48.920;2.342;2023-03-11T18:06:02;12.25;;;12.25;;
73959;SDS011;62316;48.920;2.342;2023-03-11T18:08:29;8.25;;;8.25;;
73959;SDS011;62316;48.920;2.342;2023-03-11T18:10:59;8.50;;;7.75;;
73959;SDS011;62316;48.920;2.342;2023-03-11T18:13:27;10.00;;;10.00;;
73959;SDS011;62316;48.920;2.342;2023-03-11T18:15:56;9.75;;;8.25;;
73959;SDS011;62316;48.920;2.342;2023-03-11T18:18:22;8.50;;;7.75;;
73959;SDS011;62316;48.920;2.342;2023-03-11T18:20:48;10.50;;;9.00;;
73959;SDS011;62316;48.920;2.342;2023-03-11T18:23:13;13.25;;;12.00;;
73959;SDS011;62316;48.920;2.342;2023-03-11T18:25:38;9.50;;;7.50;;
73959;SDS011;62316;48.920;2.342;2023-03-11T18:28:04;7.00;;;7.00;;
73959;SDS011;62316;48.920;2.342;2023-03-11T18:30:29;11.75;;;10.50;;
73959;SDS011;62316;48.920;2.342;2023-03-11T18:32:55;9.00;;;7.75;;
73959;SDS011;62316;48.920;2.342;2023-03-11T18:35:20;12.50;;;9.25;;
73959;SDS011;62316;48.920;2.342;2023-03-11T18:37:46;7.25;;;7.00;;
73959;SDS011;62316;48.920;2.342;2023-03-11T18:40:12;14.00;;;9.75;;
73959;SDS011;62316;48.920;2.342;2023-03-11T18:42:37;8.75;;;8.00;;
73959;SDS011;62316;48.920;2.342;2023-03-11T18:45:03;10.50;;;9.00;;
73959;SDS011;62316;48.920;2.342;2023-03-11T18:47:32;12.75;;;11.50;;
73959;SDS011;62316;48.920;2.342;2023-03-11T18:49:58;9.00;;;9.00;;
73959;SDS011;62316;48.920;2.342;2023-03-11T18:52:24;8.50;;;8.50;;
73959;SDS011;62316;48.920;2.342;2023-03-11T18:54:49;6.75;;;4.50;;
73959;SDS011;62316;48.920;2.342;2023-03-11T18:57:15;10.25;;;10.25;;
73959;SDS011;62316;48.920;2.342;2023-03-11T18:59:40;12.00;;;10.00;;
73959;SDS011;62316;48.920;2.342;2023-03-11T19:02:06;7.50;;;6.25;;
73959;SDS011;62316;48.920;2.342;2023-03-11T19:04:31;18.00;;;16.00;;
73959;SDS011;62316;48.920;2.342;2023-03-11T19:06:57;6.75;;;6.75;;
73959;SDS011;62316;48.920;2.342;2023-03-11T19:09:22;16.00;;;13.00;;
73959;SDS011;62316;48.920;2.342;2023-03-11T19:11:48;11.50;;;11.00;;
73959;SDS011;62316;48.920;2.342;2023-03-11T19:14:13;11.00;;;11.00;;
73959;SDS011;62316;48.920;2.342;2023-03-11T19:16:39;14.25;;;13.50;;
73959;SDS011;62316;48.920;2.342;2023-03-11T19:19:04;12.25;;;11.50;;
73959;SDS011;62316;48.920;2.342;2023-03-11T19:21:29;17.00;;;14.50;;
73959;SDS011;62316;48.920;2.342;2023-03-11T19:24:02;3.00;;;1.75;;
73959;SDS011;62316;48.920;2.342;2023-03-11T19:26:41;12.00;;;10.75;;
73959;SDS011;62316;48.920;2.342;2023-03-11T19:29:26;13.25;;;13.00;;
73959;SDS011;62316;48.920;2.342;2023-03-11T19:31:51;12.25;;;12.25;;
73959;SDS011;62316;48.920;2.342;2023-03-11T19:34:17;10.50;;;10.00;;
73959;SDS011;62316;48.920;2.342;2023-03-11T19:36:42;17.00;;;12.75;;
73959;SDS011;62316;48.920;2.342;2023-03-11T19:39:10;12.25;;;12.25;;
73959;SDS011;62316;48.920;2.342;2023-03-11T19:41:36;14.25;;;14.25;;
73959;SDS011;62316;48.920;2.342;2023-03-11T19:44:01;13.25;;;12.00;;
73959;SDS011;62316;48.920;2.342;2023-03-11T19:46:58;12.25;;;12.25;;
73959;SDS011;62316;48.920;2.342;2023-03-11T19:49:56;15.50;;;13.50;;
73959;SDS011;62316;48.920;2.342;2023-03-11T19:52:22;17.00;;;14.50;;
73959;SDS011;62316;48.920;2.342;2023-03-11T19:54:48;12.25;;;12.25;;
73959;SDS011;62316;48.920;2.342;2023-03-11T19:57:14;18.00;;;15.25;;
73959;SDS011;62316;48.920;2.342;2023-03-11T19:59:39;14.75;;;14.75;;
73959;SDS011;62316;48.920;2.342;2023-03-11T20:02:05;12.75;;;12.75;;
73959;SDS011;62316;48.920;2.342;2023-03-11T20:04:31;16.00;;;16.00;;
73959;SDS011;62316;48.920;2.342;2023-03-11T20:06:57;12.50;;;12.25;;
73959;SDS011;62316;48.920;2.342;2023-03-11T20:09:22;17.75;;;14.00;;
73959;SDS011;62316;48.920;2.342;2023-03-11T20:11:48;17.50;;;15.50;;
73959;SDS011;62316;48.920;2.342;2023-03-11T20:14:13;16.00;;;14.00;;
73959;SDS011;62316;48.920;2.342;2023-03-11T20:16:39;15.50;;;14.50;;
73959;SDS011;62316;48.920;2.342;2023-03-11T20:19:05;21.50;;;17.00;;
73959;SDS011;62316;48.920;2.342;2023-03-11T20:21:31;15.50;;;15.00;;
73959;SDS011;62316;48.920;2.342;2023-03-11T20:23:56;14.00;;;12.75;;
73959;SDS011;62316;48.920;2.342;2023-03-11T20:26:22;17.25;;;16.25;;
73959;SDS011;62316;48.920;2.342;2023-03-11T20:28:48;22.50;;;18.00;;
73959;SDS011;62316;48.920;2.342;2023-03-11T20:31:18;20.00;;;16.00;;
73959;SDS011;62316;48.920;2.342;2023-03-11T20:33:45;18.00;;;17.75;;
73959;SDS011;62316;48.920;2.342;2023-03-11T20:36:11;19.00;;;14.00;;
73959;SDS011;62316;48.920;2.342;2023-03-11T20:38:38;26.25;;;19.75;;
73959;SDS011;62316;48.920;2.342;2023-03-11T20:41:04;26.50;;;19.50;;
73959;SDS011;62316;48.920;2.342;2023-03-11T20:43:31;20.25;;;18.00;;
73959;SDS011;62316;48.920;2.342;2023-03-11T20:45:58;22.25;;;20.75;;
73959;SDS011;62316;48.920;2.342;2023-03-11T20:48:23;26.50;;;21.50;;
73959;SDS011;62316;48.920;2.342;2023-03-11T20:50:49;19.00;;;19.00;;
73959;SDS011;62316;48.920;2.342;2023-03-11T20:53:14;27.75;;;22.00;;
73959;SDS011;62316;48.920;2.342;2023-03-11T20:55:40;20.50;;;19.00;;
73959;SDS011;62316;48.920;2.342;2023-03-11T20:58:05;23.25;;;21.25;;
73959;SDS011;62316;48.920;2.342;2023-03-11T21:00:37;21.75;;;19.50;;
73959;SDS011;62316;48.920;2.342;2023-03-11T21:03:16;25.50;;;22.50;;
73959;SDS011;62316;48.920;2.342;2023-03-11T21:06:00;20.25;;;18.50;;
73959;SDS011;62316;48.920;2.342;2023-03-11T21:08:25;19.25;;;16.00;;
73959;SDS011;62316;48.920;2.342;2023-03-11T21:10:51;18.50;;;14.50;;
73959;SDS011;62316;48.920;2.342;2023-03-11T21:13:23;20.75;;;19.50;;
73959;SDS011;62316;48.920;2.342;2023-03-11T21:15:48;24.50;;;22.75;;
73959;SDS011;62316;48.920;2.342;2023-03-11T21:21:55;17.25;;;17.25;;
73959;SDS011;62316;48.920;2.342;2023-03-11T21:24:36;19.50;;;19.50;;
73959;SDS011;62316;48.920;2.342;2023-03-11T21:27:07;19.50;;;18.25;;
73959;SDS011;62316;48.920;2.342;2023-03-11T21:29:33;21.75;;;19.75;;
73959;SDS011;62316;48.920;2.342;2023-03-11T21:31:58;21.50;;;21.50;;
73959;SDS011;62316;48.920;2.342;2023-03-11T21:34:25;21.25;;;16.75;;
73959;SDS011;62316;48.920;2.342;2023-03-11T21:36:53;24.00;;;21.75;;
73959;SDS011;62316;48.920;2.342;2023-03-11T21:39:18;19.50;;;18.50;;
73959;SDS011;62316;48.920;2.342;2023-03-11T21:41:49;22.25;;;20.75;;
73959;SDS011;62316;48.920;2.342;2023-03-11T21:44:17;19.75;;;17.50;;
73959;SDS011;62316;48.920;2.342;2023-03-11T21:46:42;33.00;;;29.25;;
73959;SDS011;62316;48.920;2.342;2023-03-11T21:49:08;29.25;;;25.25;;
73959;SDS011;62316;48.920;2.342;2023-03-11T21:51:49;23.00;;;21.25;;
73959;SDS011;62316;48.920;2.342;2023-03-11T21:54:14;21.00;;;18.00;;
73959;SDS011;62316;48.920;2.342;2023-03-11T21:56:40;18.50;;;18.50;;
73959;SDS011;62316;48.920;2.342;2023-03-11T21:59:06;32.50;;;26.50;;
73959;SDS011;62316;48.920;2.342;2023-03-11T22:01:32;23.25;;;19.75;;